createdAt,value
2022-08-12T01:15:07.627Z,26.00
2022-08-12T01:17:46.182Z,17.40
2022-08-12T01:20:31.871Z,17.00
2022-08-12T01:23:34.657Z,16.80
2022-08-12T01:26:19.227Z,16.70
2022-08-12T01:28:59.286Z,16.60
2022-08-12T01:31:39.269Z,16.50
2022-08-12T01:34:28.477Z,16.50
2022-08-12T01:37:13.183Z,16.50
2022-08-12T01:40:33.683Z,16.50
2022-08-12T01:42:52.975Z,16.50
2022-08-12T01:45:40.593Z,16.50
2022-08-12T01:48:27.658Z,16.40
2022-08-12T01:51:07.766Z,16.40
2022-08-12T01:53:55.674Z,16.30
2022-08-12T01:56:43.681Z,16.30
2022-08-12T01:59:42.616Z,16.30
2022-08-12T02:02:19.442Z,16.30
2022-08-12T02:05:28.028Z,16.20
2022-08-12T02:08:36.943Z,16.20
2022-08-12T02:11:21.558Z,16.20
2022-08-12T02:14:21.426Z,16.10
2022-08-12T02:17:54.620Z,16.00
2022-08-12T02:20:23.747Z,16.00
2022-08-12T02:23:15.190Z,16.00
2022-08-12T02:25:55.317Z,16.00
2022-08-12T02:28:32.234Z,16.00
2022-08-12T02:31:11.182Z,15.90
2022-08-12T02:33:50.004Z,15.90
2022-08-12T02:36:25.085Z,15.90
2022-08-12T02:39:01.070Z,15.80
2022-08-12T02:41:39.587Z,15.80
2022-08-12T02:44:17.951Z,15.90
2022-08-12T02:46:58.091Z,15.80
2022-08-12T02:49:39.984Z,15.80
2022-08-12T02:52:18.100Z,15.70
2022-08-12T02:55:01.621Z,15.60
2022-08-12T02:57:36.882Z,15.60
2022-08-12T03:00:14.366Z,15.50
2022-08-12T03:02:51.401Z,15.00
2022-08-12T03:05:29.819Z,15.40
2022-08-12T03:08:30.555Z,15.40
2022-08-12T03:11:16.212Z,15.40
2022-08-12T03:13:57.605Z,15.40
2022-08-12T03:16:34.038Z,15.40
2022-08-12T03:19:14.013Z,15.40
2022-08-12T03:22:08.783Z,15.30
2022-08-12T03:24:47.484Z,15.40
2022-08-12T03:27:23.858Z,15.30
2022-08-12T03:30:01.546Z,15.30
2022-08-12T03:32:38.679Z,15.20
2022-08-12T03:35:40.730Z,15.30
2022-08-12T03:38:16.329Z,15.20
2022-08-12T03:41:12.931Z,15.10
2022-08-12T03:44:06.250Z,15.10
2022-08-12T03:47:00.617Z,15.00
2022-08-12T03:49:48.856Z,14.90
2022-08-12T03:52:36.375Z,14.80
2022-08-12T03:55:26.882Z,14.90
2022-08-12T03:58:17.173Z,14.90
2022-08-12T04:00:53.036Z,14.90
2022-08-12T04:03:41.174Z,14.80
2022-08-12T04:06:34.798Z,14.70
2022-08-12T04:09:16.492Z,14.70
2022-08-12T04:12:07.043Z,14.70
2022-08-12T04:14:42.397Z,14.70
2022-08-12T04:17:18.857Z,14.70
2022-08-12T04:19:54.736Z,14.80
2022-08-12T04:22:31.104Z,14.90
2022-08-12T04:25:06.987Z,15.00
2022-08-12T04:27:47.041Z,15.10
2022-08-12T04:30:32.859Z,15.10
2022-08-12T04:33:10.683Z,15.20
2022-08-12T04:35:47.072Z,15.30
2022-08-12T04:38:23.242Z,15.30
2022-08-12T04:40:58.552Z,15.30
2022-08-12T04:44:01.630Z,15.50
2022-08-12T04:46:34.613Z,15.70
2022-08-12T04:49:10.053Z,15.90
2022-08-12T04:51:53.564Z,16.20
2022-08-12T04:54:34.544Z,16.50
2022-08-12T04:57:10.571Z,16.90
2022-08-12T04:59:49.370Z,17.00
2022-08-12T05:02:27.130Z,17.20
2022-08-12T05:05:04.625Z,17.50
2022-08-12T05:07:53.143Z,17.50
2022-08-12T05:10:33.471Z,17.40
2022-08-12T05:13:15.023Z,17.40
2022-08-12T05:16:03.971Z,17.40
2022-08-12T05:18:44.548Z,17.50
2022-08-12T05:21:20.962Z,17.60
2022-08-12T05:23:56.154Z,17.50
2022-08-12T05:26:32.516Z,17.50
2022-08-12T05:30:05.528Z,17.40
2022-08-12T05:32:11.214Z,17.40
2022-08-12T05:34:46.798Z,17.30
2022-08-12T05:37:22.238Z,17.30
2022-08-12T05:39:57.451Z,17.30
2022-08-12T05:42:34.582Z,17.30
2022-08-12T05:45:11.818Z,17.40
2022-08-12T05:47:54.055Z,17.40
2022-08-12T05:50:29.553Z,17.50
2022-08-12T05:53:05.054Z,17.50
2022-08-12T05:55:40.604Z,17.60
2022-08-12T05:58:15.615Z,17.80
2022-08-12T06:00:50.717Z,17.90
2022-08-12T06:03:28.376Z,17.90
2022-08-12T06:06:04.702Z,18.00
2022-08-12T06:08:39.824Z,18.10
2022-08-12T06:11:15.557Z,18.10
2022-08-12T06:13:54.595Z,18.10
2022-08-12T06:16:33.381Z,18.20
2022-08-12T06:19:11.160Z,18.30
2022-08-12T06:21:48.947Z,18.50
2022-08-12T06:24:26.158Z,18.60
2022-08-12T06:27:01.218Z,18.80
2022-08-12T06:30:09.489Z,18.90
2022-08-12T06:32:31.556Z,19.00
2022-08-12T06:35:26.731Z,19.10
2022-08-12T06:38:05.748Z,19.10
2022-08-12T06:40:53.275Z,19.20
2022-08-12T06:43:28.559Z,19.20
2022-08-12T06:46:24.877Z,19.40
2022-08-12T06:49:00.998Z,19.70
2022-08-12T06:51:38.731Z,19.80
2022-08-12T06:54:14.313Z,19.80
2022-08-12T06:58:08.207Z,19.80
2022-08-12T07:00:01.055Z,19.90
2022-08-12T07:02:37.211Z,20.10
2022-08-12T07:05:13.223Z,20.30
2022-08-12T07:07:51.662Z,20.50
2022-08-12T07:10:27.394Z,20.80
2022-08-12T07:13:03.495Z,20.50
2022-08-12T07:15:39.455Z,20.60
2022-08-12T07:18:21.769Z,20.50
2022-08-12T07:20:58.415Z,20.60
2022-08-12T07:23:38.941Z,20.70
2022-08-12T07:26:17.201Z,20.90
2022-08-12T07:28:52.367Z,21.00
2022-08-12T07:31:27.987Z,21.00
2022-08-12T07:34:03.095Z,21.20
2022-08-12T07:36:38.263Z,21.50
2022-08-12T07:39:16.340Z,21.70
2022-08-12T07:41:51.358Z,21.80
2022-08-12T07:44:26.363Z,21.90
2022-08-12T07:47:03.371Z,22.00
2022-08-12T07:50:04.991Z,22.10
2022-08-12T07:52:34.359Z,22.30
2022-08-12T07:55:13.439Z,22.70
2022-08-12T07:57:58.762Z,23.10
2022-08-12T08:00:37.199Z,23.60
2022-08-12T08:03:13.480Z,24.20
2022-08-12T08:05:49.722Z,24.80
2022-08-12T08:08:26.701Z,26.00
2022-08-12T08:11:16.749Z,26.90
2022-08-12T08:13:51.734Z,28.20
2022-08-12T08:16:26.732Z,28.10
2022-08-12T08:19:02.103Z,28.00
2022-08-12T08:21:37.229Z,28.00
2022-08-12T08:24:18.536Z,28.00
2022-08-12T08:26:58.567Z,28.60
2022-08-12T08:29:35.544Z,29.40
2022-08-12T08:32:11.460Z,29.90
2022-08-12T08:34:53.896Z,30.00
2022-08-12T08:37:33.362Z,30.60
2022-08-12T08:40:21.806Z,32.10
2022-08-12T08:42:59.468Z,33.30
2022-08-12T08:45:34.727Z,32.70
2022-08-12T08:48:09.968Z,33.80
2022-08-12T08:50:45.521Z,34.70
2022-08-12T08:53:41.450Z,35.10
2022-08-12T08:56:16.615Z,36.10
2022-08-12T08:58:54.423Z,36.30
2022-08-12T09:01:37.221Z,37.00
2022-08-12T09:05:07.719Z,36.60
2022-08-12T09:07:16.610Z,36.40
2022-08-12T09:10:02.286Z,36.90
2022-08-12T09:12:54.061Z,37.20
2022-08-12T09:15:35.665Z,37.40
2022-08-12T09:18:12.545Z,37.30
2022-08-12T09:20:51.250Z,36.30
2022-08-12T09:23:59.026Z,36.90
2022-08-12T09:26:28.099Z,36.80
2022-08-12T09:29:11.795Z,36.50
2022-08-12T09:32:03.429Z,36.70
2022-08-12T09:34:50.855Z,36.70
2022-08-12T09:37:28.434Z,36.00
2022-08-12T09:42:07.437Z,34.30
2022-08-12T09:43:33.126Z,32.40
2022-08-12T09:46:25.114Z,31.50
2022-08-12T09:49:13.377Z,31.10
2022-08-12T09:51:55.555Z,30.60
2022-08-12T09:54:34.849Z,31.00
2022-08-12T09:58:45.078Z,31.70
2022-08-12T10:00:15.014Z,33.50
2022-08-12T10:03:31.967Z,34.80
2022-08-12T10:06:26.487Z,35.30
2022-08-12T10:09:05.474Z,37.00
2022-08-12T10:12:11.722Z,35.20
2022-08-12T10:14:49.982Z,32.70
2022-08-12T10:17:27.696Z,32.50
2022-08-12T10:20:02.679Z,34.00
2022-08-12T10:22:41.606Z,34.00
2022-08-12T10:26:34.650Z,33.00
2022-08-12T10:28:38.110Z,31.70
2022-08-12T10:31:15.887Z,30.50
2022-08-12T10:34:05.097Z,29.50
2022-08-12T10:36:42.885Z,28.70
2022-08-12T10:40:03.200Z,28.10
2022-08-12T10:42:31.759Z,27.90
2022-08-12T10:45:09.752Z,28.70
2022-08-12T10:48:20.686Z,31.90
2022-08-12T10:51:02.246Z,34.10
2022-08-12T10:53:46.022Z,33.70
2022-08-12T10:56:24.144Z,33.60
2022-08-12T10:58:59.213Z,32.90
2022-08-12T11:04:17.230Z,31.30
2022-08-12T11:04:45.587Z,30.30
2022-08-12T11:08:34.944Z,29.70
2022-08-12T11:10:20.251Z,29.10
2022-08-12T11:13:09.083Z,28.70
2022-08-12T11:16:03.531Z,31.20
2022-08-12T11:18:40.047Z,34.40
2022-08-12T11:21:15.906Z,37.40
2022-08-12T11:23:53.514Z,37.20
2022-08-12T11:26:28.911Z,37.00
2022-08-12T11:29:22.770Z,35.10
2022-08-12T11:32:02.537Z,32.80
2022-08-12T11:34:52.757Z,32.50
2022-08-12T11:37:32.291Z,33.90
2022-08-12T11:40:26.579Z,33.20
2022-08-12T11:43:20.063Z,32.40
2022-08-12T11:45:58.216Z,31.80
2022-08-12T11:48:52.625Z,30.80
2022-08-12T11:51:28.022Z,31.10
2022-08-12T11:54:11.590Z,32.90
2022-08-12T11:56:52.426Z,34.10
2022-08-12T12:02:37.404Z,37.10
2022-08-12T12:05:13.232Z,38.50
2022-08-12T12:08:38.252Z,39.30
2022-08-12T12:10:44.702Z,39.80
2022-08-12T12:14:05.316Z,38.90
2022-08-12T12:16:16.593Z,37.80
2022-08-12T12:18:54.291Z,35.60
2022-08-12T12:21:47.452Z,36.30
2022-08-12T12:24:24.586Z,36.80
2022-08-12T12:27:03.788Z,36.80
2022-08-12T12:30:18.828Z,34.90
2022-08-12T12:32:34.477Z,32.80
2022-08-12T12:35:17.802Z,32.40
2022-08-12T12:38:12.170Z,34.30
2022-08-12T12:40:50.413Z,35.70
2022-08-12T12:43:28.830Z,36.80
2022-08-12T12:46:20.857Z,37.40
2022-08-12T12:48:57.232Z,37.20
2022-08-12T12:51:49.092Z,35.60
2022-08-12T12:54:30.701Z,32.90
2022-08-12T12:57:07.696Z,32.50
2022-08-12T13:00:03.554Z,34.10
2022-08-12T13:02:40.528Z,35.70
2022-08-12T13:05:16.248Z,36.90
2022-08-12T13:08:00.799Z,35.30
2022-08-12T13:10:37.332Z,33.70
2022-08-12T13:14:07.255Z,34.10
2022-08-12T13:16:26.774Z,35.40
2022-08-12T13:19:01.864Z,37.20
2022-08-12T13:21:56.984Z,37.70
2022-08-12T13:24:34.553Z,37.10
2022-08-12T13:27:09.765Z,35.80
2022-08-12T13:29:45.115Z,35.90
2022-08-12T13:32:31.145Z,36.40
2022-08-12T13:35:19.713Z,36.60
2022-08-12T13:38:05.830Z,36.70
2022-08-12T13:40:46.357Z,37.20
2022-08-12T13:43:41.371Z,38.10
2022-08-12T13:46:17.067Z,37.60
2022-08-12T13:48:54.410Z,37.80
2022-08-12T13:51:40.775Z,36.80
2022-08-12T13:54:20.389Z,37.40
2022-08-12T13:56:58.082Z,37.90
2022-08-12T13:59:48.702Z,37.70
2022-08-12T14:02:29.219Z,37.80
2022-08-12T14:05:37.951Z,37.80
2022-08-12T14:08:06.069Z,38.10
2022-08-12T14:10:50.699Z,38.70
2022-08-12T14:14:05.948Z,38.90
2022-08-12T14:16:37.586Z,37.20
2022-08-12T14:19:27.085Z,36.70
2022-08-12T14:22:10.709Z,36.30
2022-08-12T14:24:45.838Z,36.40
2022-08-12T14:28:03.732Z,36.40
2022-08-12T14:30:29.644Z,36.30
2022-08-12T14:33:09.080Z,36.00
2022-08-12T14:35:48.647Z,35.60
2022-08-12T14:38:26.260Z,35.70
2022-08-12T14:41:03.138Z,35.80
2022-08-12T14:43:44.239Z,35.50
2022-08-12T14:46:36.474Z,35.70
2022-08-12T14:50:00.849Z,35.50
2022-08-12T14:53:26.743Z,35.80
2022-08-12T14:58:00.769Z,35.60
2022-08-12T15:00:52.163Z,35.30
2022-08-12T15:03:52.374Z,35.00
2022-08-12T15:06:44.368Z,35.10
2022-08-12T15:09:29.286Z,34.70
2022-08-12T15:12:05.592Z,34.30
2022-08-12T15:14:49.826Z,34.30
2022-08-12T15:17:38.166Z,34.10
2022-08-12T15:20:37.294Z,33.30
2022-08-12T15:23:18.111Z,32.40
2022-08-12T15:26:02.522Z,31.60
2022-08-12T15:28:40.469Z,30.90
2022-08-12T15:32:00.587Z,30.50
2022-08-12T15:34:24.043Z,30.10
2022-08-12T15:37:01.866Z,29.90
2022-08-12T15:39:36.941Z,29.90
2022-08-12T15:42:12.160Z,29.80
2022-08-12T15:44:47.403Z,29.70
2022-08-12T15:47:26.860Z,29.70
2022-08-12T15:50:10.600Z,29.50
2022-08-12T15:53:13.848Z,29.40
2022-08-12T15:55:50.561Z,29.30
2022-08-12T15:58:27.111Z,29.00
2022-08-12T16:01:02.261Z,28.70
2022-08-12T16:03:46.121Z,28.60
2022-08-12T16:10:04.914Z,28.60
2022-08-12T16:12:32.747Z,28.50
2022-08-12T16:15:09.270Z,28.50
2022-08-12T16:18:18.121Z,28.50
2022-08-12T16:20:41.767Z,28.40
2022-08-12T16:23:36.610Z,28.30
2022-08-12T16:26:27.529Z,28.30
2022-08-12T16:29:14.677Z,28.20
2022-08-12T16:31:51.145Z,28.20
2022-08-12T16:34:55.059Z,28.20
2022-08-12T16:37:21.409Z,28.10
2022-08-12T16:40:01.806Z,28.20
2022-08-12T16:42:54.380Z,28.00
2022-08-12T16:46:07.692Z,27.90
2022-08-12T16:48:36.279Z,28.00
2022-08-12T16:51:13.435Z,27.90
2022-08-12T16:53:48.890Z,27.80
2022-08-12T16:56:26.382Z,27.70
2022-08-12T16:59:12.646Z,27.50
2022-08-12T17:01:51.837Z,27.50
2022-08-12T17:04:27.635Z,27.40
2022-08-12T17:07:02.627Z,27.40
2022-08-12T17:09:40.328Z,27.50
2022-08-12T17:12:15.913Z,27.40
2022-08-12T17:14:54.251Z,27.20
2022-08-12T17:17:39.481Z,27.20
2022-08-12T17:20:36.070Z,27.10
2022-08-12T17:23:14.147Z,27.00
2022-08-12T17:25:51.839Z,27.00
2022-08-12T17:28:28.130Z,26.90
2022-08-12T17:31:06.265Z,26.90
2022-08-12T17:33:43.261Z,26.80
2022-08-12T17:36:18.589Z,26.80
2022-08-12T17:38:53.812Z,26.70
2022-08-12T17:41:56.428Z,26.80
2022-08-12T17:44:24.046Z,26.70
2022-08-12T17:47:02.783Z,26.60
2022-08-12T17:50:03.467Z,26.60
2022-08-12T17:52:35.342Z,26.60
2022-08-12T17:55:40.866Z,26.50
2022-08-12T17:58:07.360Z,26.40
2022-08-12T18:00:50.674Z,26.40
2022-08-12T18:04:04.866Z,26.30
2022-08-12T18:06:28.156Z,26.30
2022-08-12T18:09:08.921Z,26.20
2022-08-12T18:12:05.101Z,26.20
2022-08-12T18:14:47.734Z,26.10
2022-08-12T18:17:23.695Z,26.00
2022-08-12T18:20:07.377Z,25.90
2022-08-12T18:22:44.517Z,25.70
2022-08-12T18:26:16.812Z,25.60
2022-08-12T18:28:43.217Z,25.60
2022-08-12T18:31:22.138Z,25.40
2022-08-12T18:33:57.150Z,25.20
2022-08-12T18:36:38.765Z,25.00
2022-08-12T18:39:22.874Z,24.90
2022-08-12T18:41:56.083Z,24.70
2022-08-12T18:44:33.594Z,24.60
2022-08-12T18:47:10.560Z,24.50
2022-08-12T18:49:49.773Z,24.40
2022-08-12T18:52:30.999Z,24.30
2022-08-12T18:55:11.765Z,24.20
2022-08-12T18:58:08.288Z,24.10
2022-08-12T19:00:44.486Z,24.00
2022-08-12T19:03:39.924Z,23.90
2022-08-12T19:06:16.603Z,23.90
2022-08-12T19:08:59.975Z,23.80
2022-08-12T19:11:48.669Z,23.60
2022-08-12T19:14:29.647Z,23.60
2022-08-12T19:17:06.285Z,23.50
2022-08-12T19:19:47.174Z,23.40
2022-08-12T19:22:28.872Z,23.40
2022-08-12T19:25:21.502Z,23.30
2022-08-12T19:27:59.686Z,23.30
2022-08-12T19:30:52.553Z,23.20
2022-08-12T19:33:27.882Z,23.10
2022-08-12T19:36:25.257Z,22.90
2022-08-12T19:39:01.960Z,22.90
2022-08-12T19:42:00.653Z,22.80
2022-08-12T19:44:38.324Z,22.70
2022-08-12T19:47:16.306Z,22.60
2022-08-12T19:49:53.805Z,22.60
2022-08-12T19:52:33.743Z,22.50
2022-08-12T19:55:11.676Z,22.40
2022-08-12T19:58:02.963Z,22.30
2022-08-12T20:00:41.245Z,22.30
2022-08-12T20:03:39.380Z,22.20
2022-08-12T20:06:21.584Z,22.10
2022-08-12T20:08:59.648Z,22.00
2022-08-12T20:12:09.664Z,21.90
2022-08-12T20:14:32.952Z,21.80
2022-08-12T20:17:10.869Z,21.80
2022-08-12T20:20:02.739Z,21.80
2022-08-12T20:22:42.877Z,21.70
2022-08-12T20:25:28.529Z,21.70
2022-08-12T20:28:16.051Z,21.60
2022-08-12T20:30:59.706Z,21.60
2022-08-12T20:33:50.809Z,21.50
2022-08-12T20:36:43.121Z,21.40
2022-08-12T20:39:52.052Z,21.40
2022-08-12T20:42:16.655Z,21.30
2022-08-12T20:44:53.048Z,21.20
2022-08-12T20:47:42.114Z,21.20
2022-08-12T20:50:22.924Z,21.10
2022-08-12T20:53:02.528Z,21.00
2022-08-12T20:55:46.983Z,21.50
2022-08-12T20:58:32.007Z,20.90
2022-08-12T21:01:07.078Z,20.80
2022-08-12T21:04:06.153Z,20.70
2022-08-12T21:06:53.601Z,20.70
2022-08-12T21:09:32.906Z,20.70
2022-08-12T21:12:27.318Z,20.70
2022-08-12T21:15:22.975Z,20.70
2022-08-12T21:18:11.299Z,20.60
2022-08-12T21:21:02.641Z,20.60
2022-08-12T21:23:38.984Z,20.60
2022-08-12T21:26:16.908Z,20.60
2022-08-12T21:28:56.813Z,20.60
2022-08-12T21:32:39.456Z,20.50
2022-08-12T21:34:34.202Z,20.50
2022-08-12T21:37:27.265Z,20.40
2022-08-12T21:40:13.471Z,20.30
2022-08-12T21:42:49.936Z,20.30
2022-08-12T21:45:45.733Z,20.20
2022-08-12T21:48:22.506Z,20.00
2022-08-12T21:50:58.738Z,20.00
2022-08-12T21:54:05.958Z,20.00
2022-08-12T21:56:34.545Z,20.00
2022-08-12T21:59:14.616Z,20.00
2022-08-12T22:01:51.546Z,19.90
2022-08-12T22:04:39.061Z,19.80
2022-08-12T22:07:18.560Z,19.80
2022-08-12T22:09:57.293Z,19.70
2022-08-12T22:12:37.593Z,19.60
2022-08-12T22:15:21.483Z,19.50
2022-08-12T22:18:04.887Z,19.50
2022-08-12T22:20:40.326Z,19.40
2022-08-12T22:23:21.758Z,19.30
2022-08-12T22:26:06.822Z,19.30
2022-08-12T22:28:57.367Z,19.40
2022-08-12T22:31:33.539Z,19.40
2022-08-12T22:34:10.487Z,19.50
2022-08-12T22:36:53.343Z,19.50
2022-08-12T22:39:33.657Z,19.50
2022-08-12T22:42:28.718Z,19.40
2022-08-12T22:45:18.382Z,19.40
2022-08-12T22:47:58.579Z,19.30
2022-08-12T22:50:34.858Z,19.30
2022-08-12T22:53:20.346Z,19.20
2022-08-12T22:56:06.224Z,19.20
2022-08-12T22:58:46.276Z,19.20
2022-08-12T23:02:01.199Z,19.10
2022-08-12T23:04:27.588Z,19.00
2022-08-12T23:07:05.575Z,18.90
2022-08-12T23:09:47.993Z,19.00
2022-08-12T23:12:40.793Z,19.00
2022-08-12T23:15:24.370Z,19.00
2022-08-12T23:17:59.450Z,19.00
2022-08-12T23:20:34.523Z,19.00
2022-08-12T23:23:10.464Z,19.00
2022-08-12T23:25:54.458Z,19.00
2022-08-12T23:28:43.540Z,18.90
2022-08-12T23:32:02.885Z,18.80
2022-08-12T23:34:31.948Z,18.70
2022-08-12T23:37:08.610Z,18.70
2022-08-12T23:40:14.839Z,18.70
2022-08-12T23:42:38.786Z,18.70
2022-08-12T23:45:30.636Z,18.70
2022-08-12T23:48:23.115Z,18.60
2022-08-12T23:51:22.749Z,18.50
2022-08-12T23:54:03.006Z,18.50
2022-08-12T23:56:43.643Z,18.60
2022-08-12T23:59:19.157Z,18.60
